createdAt,value
2018-08-10T00:00:36.693Z,1.30
2018-08-10T00:03:03.920Z,1.10
2018-08-10T00:05:31.033Z,1.30
2018-08-10T00:07:58.139Z,1.40
2018-08-10T00:10:25.260Z,1.33
2018-08-10T00:12:52.341Z,1.40
2018-08-10T00:15:19.460Z,1.10
2018-08-10T00:17:46.561Z,1.83
2018-08-10T00:20:14.585Z,1.70
2018-08-10T00:22:41.906Z,1.60
2018-08-10T00:25:11.003Z,1.67
2018-08-10T00:27:38.136Z,1.50
2018-08-10T00:30:07.126Z,1.90
2018-08-10T00:32:34.256Z,1.53
2018-08-10T00:35:01.329Z,1.77
2018-08-10T00:37:28.450Z,1.73
2018-08-10T00:39:55.532Z,1.60
2018-08-10T00:42:22.769Z,1.80
2018-08-10T00:44:49.869Z,1.60
2018-08-10T00:47:16.985Z,2.07
2018-08-10T00:49:44.078Z,1.70
2018-08-10T00:52:11.194Z,1.67
2018-08-10T00:54:38.292Z,1.63
2018-08-10T00:57:05.429Z,1.90
2018-08-10T00:59:32.529Z,2.10
2018-08-10T01:01:59.636Z,1.97
2018-08-10T01:04:26.737Z,2.10
2018-08-10T01:06:54.001Z,1.90
2018-08-10T01:09:21.105Z,2.10
2018-08-10T01:11:48.193Z,2.10
2018-08-10T01:14:15.483Z,2.07
2018-08-10T01:16:42.589Z,2.13
2018-08-10T01:19:09.781Z,2.00
2018-08-10T01:21:36.837Z,2.30
2018-08-10T01:24:03.958Z,2.13
2018-08-10T01:26:31.065Z,2.40
2018-08-10T01:28:58.243Z,2.20
2018-08-10T01:31:25.268Z,2.10
2018-08-10T01:33:52.352Z,1.83
2018-08-10T01:36:19.444Z,2.10
2018-08-10T01:38:46.537Z,1.90
2018-08-10T01:41:13.669Z,2.03
2018-08-10T01:43:40.998Z,1.83
2018-08-10T01:46:08.151Z,1.60
2018-08-10T01:49:06.033Z,1.80
2018-08-10T01:51:33.162Z,1.70
2018-08-10T01:54:00.253Z,2.13
2018-08-10T01:56:27.392Z,1.77
2018-08-10T01:58:54.760Z,1.73
2018-08-10T02:01:21.873Z,1.67
2018-08-10T02:03:48.984Z,1.83
2018-08-10T02:06:16.080Z,2.23
2018-08-10T02:08:43.180Z,2.43
2018-08-10T02:11:10.300Z,2.17
2018-08-10T02:13:37.416Z,2.10
2018-08-10T02:16:04.804Z,1.90
2018-08-10T02:18:31.929Z,2.13
2018-08-10T02:20:59.065Z,1.90
2018-08-10T02:23:26.157Z,2.10
2018-08-10T02:25:53.312Z,2.00
2018-08-10T02:28:20.397Z,2.10
2018-08-10T02:30:47.508Z,2.40
2018-08-10T02:33:14.608Z,2.13
2018-08-10T02:35:41.712Z,2.20
2018-08-10T02:38:08.816Z,2.47
2018-08-10T02:40:36.009Z,2.30
2018-08-10T02:43:03.139Z,1.80
2018-08-10T02:45:30.261Z,1.80
2018-08-10T02:47:57.385Z,1.97
2018-08-10T02:50:24.500Z,2.20
2018-08-10T02:52:51.621Z,2.10
2018-08-10T02:55:18.726Z,2.10
2018-08-10T02:57:45.840Z,2.53
2018-08-10T03:00:14.516Z,2.50
2018-08-10T03:02:42.149Z,2.27
2018-08-10T03:05:09.619Z,2.40
2018-08-10T03:07:36.815Z,2.70
2018-08-10T03:10:04.860Z,2.43
2018-08-10T03:12:31.987Z,2.40
2018-08-10T03:14:59.097Z,2.20
2018-08-10T03:17:26.213Z,2.20
2018-08-10T03:19:53.401Z,2.40
2018-08-10T03:22:20.517Z,2.60
2018-08-10T03:24:47.604Z,2.80
2018-08-10T03:27:14.714Z,2.90
2018-08-10T03:29:41.813Z,2.50
2018-08-10T03:32:08.931Z,2.77
2018-08-10T03:34:36.041Z,2.57
2018-08-10T03:37:03.140Z,2.60
2018-08-10T03:39:30.252Z,2.40
2018-08-10T03:41:57.349Z,1.93
2018-08-10T03:44:24.461Z,2.43
2018-08-10T03:46:51.588Z,2.20
2018-08-10T03:49:18.707Z,2.10
2018-08-10T03:51:45.828Z,2.00
2018-08-10T03:54:12.962Z,1.90
2018-08-10T03:56:40.105Z,2.07
2018-08-10T03:59:07.242Z,2.00
2018-08-10T04:01:41.058Z,2.13
2018-08-10T04:04:08.173Z,2.00
2018-08-10T04:06:35.284Z,1.93
2018-08-10T04:09:02.507Z,1.90
2018-08-10T04:11:29.629Z,1.70
2018-08-10T04:13:56.736Z,2.20
2018-08-10T04:16:23.837Z,1.80
2018-08-10T04:18:50.937Z,1.90
2018-08-10T04:21:18.045Z,1.83
2018-08-10T04:23:45.148Z,1.80
2018-08-10T04:26:12.260Z,1.87
2018-08-10T04:28:39.376Z,1.60
2018-08-10T04:31:06.597Z,1.77
2018-08-10T04:33:33.717Z,1.80
2018-08-10T04:36:00.826Z,1.90
2018-08-10T04:38:28.247Z,1.90
2018-08-10T04:40:55.402Z,1.60
2018-08-10T04:43:22.513Z,1.90
2018-08-10T04:45:49.626Z,1.97
2018-08-10T04:48:16.797Z,1.63
2018-08-10T04:50:43.847Z,1.93
2018-08-10T04:53:10.961Z,1.73
2018-08-10T04:55:38.086Z,2.17
2018-08-10T04:58:05.323Z,1.73
2018-08-10T05:00:32.419Z,1.50
2018-08-10T05:02:59.536Z,1.90
2018-08-10T05:05:26.976Z,1.73
2018-08-10T05:07:54.140Z,1.90
2018-08-10T05:10:21.304Z,1.77
2018-08-10T05:12:48.370Z,2.00
2018-08-10T05:15:15.470Z,1.90
2018-08-10T05:17:42.574Z,1.70
2018-08-10T05:20:10.840Z,2.00
2018-08-10T05:22:38.312Z,2.10
2018-08-10T05:25:05.488Z,1.80
2018-08-10T05:27:32.824Z,1.90
2018-08-10T05:29:59.957Z,1.50
2018-08-10T05:32:27.122Z,2.17
2018-08-10T05:34:54.338Z,1.80
2018-08-10T05:37:21.433Z,1.80
2018-08-10T05:39:48.628Z,1.70
2018-08-10T05:42:15.777Z,2.10
2018-08-10T05:44:42.877Z,1.80
2018-08-10T05:47:09.997Z,1.70
2018-08-10T05:49:37.078Z,1.90
2018-08-10T05:52:04.304Z,1.83
2018-08-10T05:54:31.497Z,1.97
2018-08-10T05:56:58.606Z,2.13
2018-08-10T05:59:25.734Z,1.90
2018-08-10T06:01:52.947Z,1.97
2018-08-10T06:04:20.305Z,1.83
2018-08-10T06:06:47.553Z,1.80
2018-08-10T06:09:15.230Z,1.70
2018-08-10T06:11:43.449Z,1.97
2018-08-10T06:14:10.641Z,1.80
2018-08-10T06:16:37.741Z,2.20
2018-08-10T06:19:04.846Z,2.70
2018-08-10T06:21:32.090Z,2.20
2018-08-10T06:23:59.165Z,2.37
2018-08-10T06:26:26.276Z,1.93
2018-08-10T06:28:53.766Z,2.10
2018-08-10T06:31:20.848Z,2.13
2018-08-10T06:33:48.017Z,2.30
2018-08-10T06:36:15.140Z,2.30
2018-08-10T06:38:42.298Z,2.20
2018-08-10T06:41:09.504Z,2.83
2018-08-10T06:43:36.597Z,2.23
2018-08-10T06:46:03.701Z,2.00
2018-08-10T06:48:30.829Z,2.30
2018-08-10T06:50:57.924Z,2.00
2018-08-10T06:53:26.253Z,2.30
2018-08-10T06:55:53.564Z,2.20
2018-08-10T06:58:20.681Z,2.40
2018-08-10T07:00:47.829Z,1.97
2018-08-10T07:03:14.949Z,2.10
2018-08-10T07:05:42.068Z,2.07
2018-08-10T07:08:09.164Z,2.20
2018-08-10T07:10:36.309Z,2.20
2018-08-10T07:13:05.789Z,2.30
2018-08-10T07:15:35.679Z,2.03
2018-08-10T07:18:03.221Z,2.07
2018-08-10T07:20:30.323Z,2.00
2018-08-10T07:22:57.415Z,2.20
2018-08-10T07:25:24.508Z,2.60
2018-08-10T07:27:51.625Z,2.00
2018-08-10T07:30:18.728Z,1.90
2018-08-10T07:32:46.848Z,2.50
2018-08-10T07:35:15.512Z,1.80
2018-08-10T07:37:45.208Z,2.00
2018-08-10T07:40:12.365Z,1.77
2018-08-10T07:42:40.593Z,1.80
2018-08-10T07:45:07.688Z,1.83
2018-08-10T07:47:34.934Z,1.70
2018-08-10T07:50:02.014Z,1.83
2018-08-10T07:52:29.116Z,1.90
2018-08-10T07:54:56.208Z,2.10
2018-08-10T07:57:23.328Z,1.77
2018-08-10T07:59:50.532Z,1.73
2018-08-10T08:02:17.626Z,1.80
2018-08-10T08:04:46.272Z,1.80
2018-08-10T08:07:13.486Z,1.80
2018-08-10T08:09:40.745Z,1.77
2018-08-10T08:12:07.854Z,2.17
2018-08-10T08:14:34.946Z,1.80
2018-08-10T08:17:02.060Z,1.80
2018-08-10T08:19:29.258Z,1.70
2018-08-10T08:22:07.696Z,1.50
2018-08-10T08:24:34.833Z,1.60
2018-08-10T08:27:01.982Z,1.67
2018-08-10T08:29:29.059Z,1.50
2018-08-10T08:31:56.157Z,1.50
2018-08-10T08:34:23.253Z,1.50
2018-08-10T08:36:50.470Z,1.50
2018-08-10T08:39:34.061Z,1.63
2018-08-10T08:42:01.181Z,1.70
2018-08-10T08:44:34.997Z,1.70
2018-08-10T08:47:03.292Z,1.73
2018-08-10T08:49:30.389Z,1.50
2018-08-10T08:51:57.490Z,1.53
2018-08-10T08:54:55.553Z,1.60
2018-08-10T08:57:22.793Z,1.90
2018-08-10T08:59:49.830Z,1.50
2018-08-10T09:02:16.870Z,1.50
2018-08-10T09:04:48.464Z,1.50
2018-08-10T09:07:15.584Z,1.60
2018-08-10T09:09:42.650Z,1.40
2018-08-10T09:12:09.746Z,1.50
2018-08-10T09:15:04.265Z,1.50
2018-08-10T09:17:31.494Z,1.40
2018-08-10T09:19:58.523Z,1.40
2018-08-10T09:22:25.629Z,1.50
2018-08-10T09:24:52.758Z,1.70
2018-08-10T09:27:19.893Z,1.30
2018-08-10T09:29:46.996Z,1.63
2018-08-10T09:34:49.368Z,1.50
2018-08-10T09:37:16.496Z,1.33
2018-08-10T09:39:43.596Z,1.67
2018-08-10T09:42:10.717Z,1.57
2018-08-10T09:44:37.805Z,1.63
2018-08-10T09:47:05.756Z,1.83
2018-08-10T09:49:37.724Z,1.50
2018-08-10T09:52:04.848Z,1.60
2018-08-10T09:54:31.941Z,2.00
2018-08-10T09:57:02.801Z,1.53
2018-08-10T09:59:30.159Z,1.30
2018-08-10T10:02:02.638Z,1.47
2018-08-10T10:04:29.729Z,1.50
2018-08-10T10:06:59.083Z,1.40
2018-08-10T10:09:26.174Z,1.70
2018-08-10T10:11:53.800Z,1.70
2018-08-10T10:14:22.293Z,2.10
2018-08-10T10:16:51.853Z,1.97
2018-08-10T10:19:21.996Z,1.53
2018-08-10T10:21:49.157Z,1.30
2018-08-10T10:24:16.253Z,1.87
2018-08-10T10:26:43.703Z,1.80
2018-08-10T10:29:10.925Z,1.60
2018-08-10T10:31:38.049Z,1.97
2018-08-10T10:34:05.241Z,1.53
2018-08-10T10:36:32.334Z,1.47
2018-08-10T10:38:59.437Z,1.40
2018-08-10T10:41:26.602Z,1.37
2018-08-10T10:43:53.698Z,1.30
2018-08-10T10:46:20.816Z,1.43
2018-08-10T10:48:47.924Z,1.63
2018-08-10T10:51:15.093Z,1.50
2018-08-10T10:53:44.225Z,2.83
2018-08-10T10:56:11.387Z,1.83
2018-08-10T10:58:38.489Z,1.80
2018-08-10T11:01:05.596Z,1.40
2018-08-10T11:03:32.696Z,1.30
2018-08-10T11:05:59.793Z,1.30
2018-08-10T11:08:26.992Z,1.60
2018-08-10T11:10:54.097Z,1.53
2018-08-10T11:13:21.187Z,1.60
2018-08-10T11:15:48.293Z,1.30
2018-08-10T11:18:15.447Z,1.50
2018-08-10T11:20:43.906Z,1.33
2018-08-10T11:23:11.171Z,1.30
2018-08-10T11:25:39.599Z,1.30
2018-08-10T11:28:06.618Z,1.30
2018-08-10T11:30:33.708Z,1.80
2018-08-10T11:33:00.857Z,1.40
2018-08-10T11:35:27.959Z,1.20
2018-08-10T11:37:55.128Z,1.40
2018-08-10T11:40:22.297Z,1.57
2018-08-10T11:42:49.401Z,1.60
2018-08-10T11:45:17.634Z,1.90
2018-08-10T11:47:44.796Z,1.70
2018-08-10T11:50:11.981Z,1.90
2018-08-10T11:52:39.321Z,2.03
2018-08-10T11:55:07.188Z,1.90
2018-08-10T11:57:34.482Z,1.70
2018-08-10T12:00:01.635Z,1.70
2018-08-10T12:02:28.717Z,1.83
2018-08-10T12:04:55.816Z,1.40
2018-08-10T12:07:22.917Z,1.50
2018-08-10T12:09:50.077Z,1.90
2018-08-10T12:12:17.193Z,1.80
2018-08-10T12:14:44.292Z,1.83
2018-08-10T12:17:11.422Z,1.50
2018-08-10T12:19:38.529Z,1.50
2018-08-10T12:22:05.720Z,1.50
2018-08-10T12:24:32.948Z,1.60
2018-08-10T12:27:00.060Z,1.50
2018-08-10T12:29:27.178Z,1.50
2018-08-10T12:31:54.282Z,1.47
2018-08-10T12:34:21.442Z,1.50
2018-08-10T12:36:48.568Z,1.23
2018-08-10T12:39:15.668Z,1.20
2018-08-10T12:41:42.786Z,1.60
2018-08-10T12:44:10.057Z,1.27
2018-08-10T12:46:37.266Z,1.50
2018-08-10T12:49:09.804Z,1.27
2018-08-10T12:51:37.036Z,1.50
2018-08-10T12:54:04.152Z,1.20
2018-08-10T12:56:31.249Z,1.20
2018-08-10T12:58:58.353Z,1.30
2018-08-10T13:01:25.449Z,1.40
2018-08-10T13:03:52.573Z,1.53
2018-08-10T13:06:19.677Z,1.60
2018-08-10T13:08:46.825Z,1.30
2018-08-10T13:11:13.938Z,1.70
2018-08-10T13:13:41.049Z,1.30
2018-08-10T13:16:08.369Z,1.10
2018-08-10T13:18:35.600Z,1.10
2018-08-10T13:21:02.584Z,1.40
2018-08-10T13:23:30.088Z,1.40
2018-08-10T13:25:57.181Z,1.30
2018-08-10T13:28:24.293Z,1.50
2018-08-10T13:30:51.397Z,1.37
2018-08-10T13:33:18.520Z,1.07
2018-08-10T13:35:45.617Z,1.33
2018-08-10T13:38:12.796Z,1.03
2018-08-10T13:40:39.966Z,1.23
2018-08-10T13:43:07.184Z,1.10
2018-08-10T13:45:34.290Z,1.13
2018-08-10T13:48:01.397Z,1.07
2018-08-10T13:50:28.544Z,1.00
2018-08-10T13:52:55.661Z,1.10
2018-08-10T13:55:22.760Z,1.20
2018-08-10T13:57:49.877Z,1.07
2018-08-10T14:00:22.958Z,1.20
2018-08-10T14:02:51.261Z,1.30
2018-08-10T14:05:18.349Z,1.10
2018-08-10T14:07:45.477Z,1.20
2018-08-10T14:10:13.352Z,1.20
2018-08-10T14:12:40.802Z,1.13
2018-08-10T14:15:07.925Z,1.10
2018-08-10T14:17:35.054Z,1.33
2018-08-10T14:20:02.164Z,1.10
2018-08-10T14:22:29.281Z,1.10
2018-08-10T14:24:56.384Z,1.07
2018-08-10T14:27:23.710Z,1.10
2018-08-10T14:29:50.804Z,1.20
2018-08-10T14:32:17.903Z,1.20
2018-08-10T14:34:45.057Z,1.10
2018-08-10T14:37:12.167Z,1.00
2018-08-10T14:39:39.285Z,0.90
2018-08-10T14:42:06.416Z,1.10
2018-08-10T14:44:33.560Z,1.00
2018-08-10T14:47:00.731Z,1.00
2018-08-10T14:49:27.764Z,1.20
2018-08-10T14:51:54.885Z,1.10
2018-08-10T14:54:22.036Z,1.20
2018-08-10T14:56:49.145Z,1.30
2018-08-10T14:59:16.256Z,1.10
2018-08-10T15:01:43.421Z,1.03
2018-08-10T15:04:10.523Z,1.00
2018-08-10T15:06:37.634Z,1.00
2018-08-10T15:09:06.793Z,1.23
2018-08-10T15:11:33.925Z,1.10
2018-08-10T15:14:01.094Z,0.97
2018-08-10T15:16:28.197Z,1.00
2018-08-10T15:18:58.005Z,1.20
2018-08-10T15:21:25.115Z,1.63
2018-08-10T15:23:52.335Z,1.00
2018-08-10T15:26:19.523Z,1.03
2018-08-10T15:28:46.636Z,1.00
2018-08-10T15:31:14.770Z,1.10
2018-08-10T15:33:41.878Z,1.00
2018-08-10T15:36:09.056Z,1.00
2018-08-10T15:38:36.291Z,1.20
2018-08-10T15:41:03.388Z,1.23
2018-08-10T15:43:30.601Z,1.10
2018-08-10T15:45:57.718Z,1.30
2018-08-10T15:48:24.837Z,0.90
2018-08-10T15:50:51.967Z,1.00
2018-08-10T15:53:19.237Z,1.10
2018-08-10T15:55:46.369Z,0.83
2018-08-10T15:58:13.500Z,1.00
2018-08-10T16:00:40.654Z,1.10
2018-08-10T16:03:07.820Z,1.00
2018-08-10T16:05:34.952Z,1.00
2018-08-10T16:08:02.308Z,1.00
2018-08-10T16:10:29.409Z,1.20
2018-08-10T16:12:56.554Z,1.07
2018-08-10T16:15:23.658Z,0.90
2018-08-10T16:17:50.760Z,0.97
2018-08-10T16:20:18.408Z,0.80
2018-08-10T16:22:45.577Z,0.90
2018-08-10T16:25:12.700Z,1.40
2018-08-10T16:27:40.505Z,1.10
2018-08-10T16:30:09.116Z,1.40
2018-08-10T16:32:36.570Z,0.90
2018-08-10T16:35:04.247Z,1.17
2018-08-10T16:37:31.349Z,0.90
2018-08-10T16:40:04.878Z,1.07
2018-08-10T16:42:31.981Z,0.97
2018-08-10T16:44:59.100Z,1.10
2018-08-10T16:47:26.292Z,1.20
2018-08-10T16:49:53.385Z,1.23
2018-08-10T16:52:20.608Z,1.00
2018-08-10T16:54:47.733Z,1.10
2018-08-10T16:57:14.841Z,1.17
2018-08-10T16:59:41.912Z,1.07
2018-08-10T17:02:09.376Z,0.97
2018-08-10T17:04:36.495Z,1.10
2018-08-10T17:07:03.592Z,1.60
2018-08-10T17:09:30.685Z,1.20
2018-08-10T17:11:57.788Z,1.00
2018-08-10T17:14:25.324Z,1.23
2018-08-10T17:16:52.437Z,1.00
2018-08-10T17:19:19.609Z,1.10
2018-08-10T17:21:46.721Z,1.00
2018-08-10T17:24:13.825Z,1.20
2018-08-10T17:26:40.937Z,1.00
2018-08-10T17:29:08.080Z,1.43
2018-08-10T17:31:35.177Z,1.17
2018-08-10T17:34:02.280Z,1.20
2018-08-10T17:36:29.388Z,1.30
2018-08-10T17:38:56.576Z,1.17
2018-08-10T17:41:23.681Z,1.00
2018-08-10T17:43:51.208Z,2.00
2018-08-10T17:46:18.329Z,0.90
2018-08-10T17:48:45.540Z,1.00
2018-08-10T17:51:12.740Z,1.40
2018-08-10T17:53:39.849Z,1.13
2018-08-10T17:56:06.950Z,0.90
2018-08-10T17:58:34.080Z,1.10
2018-08-10T18:01:01.162Z,1.10
2018-08-10T18:03:28.296Z,1.10
2018-08-10T18:05:55.400Z,1.07
2018-08-10T18:08:22.516Z,1.30
2018-08-10T18:10:49.640Z,1.40
2018-08-10T18:13:16.764Z,1.20
2018-08-10T18:15:43.885Z,1.40
2018-08-10T18:18:10.977Z,1.30
2018-08-10T18:20:38.064Z,1.30
2018-08-10T18:23:05.576Z,1.00
2018-08-10T18:25:32.673Z,1.10
2018-08-10T18:27:59.809Z,1.30
2018-08-10T18:30:26.953Z,1.13
2018-08-10T18:32:54.222Z,1.23
2018-08-10T18:35:21.305Z,1.40
2018-08-10T18:37:49.150Z,1.13
2018-08-10T18:40:16.505Z,1.30
2018-08-10T18:42:44.584Z,1.20
2018-08-10T18:45:13.661Z,1.60
2018-08-10T18:47:40.873Z,1.00
2018-08-10T18:50:08.621Z,1.13
2018-08-10T18:52:36.189Z,1.17
2018-08-10T18:55:03.668Z,1.10
2018-08-10T18:57:30.808Z,1.10
2018-08-10T18:59:57.904Z,0.90
2018-08-10T19:02:25.088Z,1.20
2018-08-10T19:04:52.236Z,1.10
2018-08-10T19:07:19.348Z,1.20
2018-08-10T19:09:46.873Z,1.23
2018-08-10T19:12:14.090Z,1.07
2018-08-10T19:14:41.113Z,1.20
2018-08-10T19:17:08.236Z,1.00
2018-08-10T19:19:35.603Z,1.13
2018-08-10T19:22:02.825Z,1.10
2018-08-10T19:24:30.081Z,1.20
2018-08-10T19:26:57.225Z,1.17
2018-08-10T19:29:24.332Z,1.37
2018-08-10T19:31:51.460Z,1.10
2018-08-10T19:34:18.650Z,1.37
2018-08-10T19:36:45.750Z,1.17
2018-08-10T19:39:19.314Z,1.27
2018-08-10T19:41:46.412Z,1.40
2018-08-10T19:44:13.553Z,1.40
2018-08-10T19:46:40.692Z,1.40
2018-08-10T19:49:07.772Z,1.00
2018-08-10T19:51:34.868Z,1.20
2018-08-10T19:54:01.972Z,1.10
2018-08-10T19:56:29.097Z,1.27
2018-08-10T19:58:56.197Z,1.17
2018-08-10T20:01:23.300Z,1.30
2018-08-10T20:03:50.410Z,1.60
2018-08-10T20:06:17.505Z,1.20
2018-08-10T20:08:44.604Z,1.20
2018-08-10T20:11:11.790Z,1.37
2018-08-10T20:13:38.868Z,1.37
2018-08-10T20:16:06.153Z,1.33
2018-08-10T20:18:33.281Z,1.30
2018-08-10T20:21:00.383Z,1.20
2018-08-10T20:23:27.524Z,1.40
2018-08-10T20:25:54.698Z,1.20
2018-08-10T20:28:21.808Z,1.30
2018-08-10T20:30:48.885Z,1.40
2018-08-10T20:33:15.985Z,1.53
2018-08-10T20:35:43.092Z,1.30
2018-08-10T20:38:10.204Z,1.60
2018-08-10T20:40:37.338Z,1.30
2018-08-10T20:43:04.449Z,1.23
2018-08-10T20:45:31.564Z,1.40
2018-08-10T20:47:58.678Z,1.30
2018-08-10T20:50:25.776Z,1.40
2018-08-10T20:52:52.921Z,1.40
2018-08-10T20:55:20.288Z,1.27
2018-08-10T20:57:47.812Z,1.40
2018-08-10T21:00:14.946Z,1.20
2018-08-10T21:02:43.701Z,1.67
2018-08-10T21:05:11.066Z,3.10
2018-08-10T21:07:38.300Z,1.30
2018-08-10T21:10:09.926Z,1.40
2018-08-10T21:12:37.277Z,1.30
2018-08-10T21:15:05.224Z,1.10
2018-08-10T21:17:32.329Z,1.43
2018-08-10T21:19:59.424Z,1.30
2018-08-10T21:22:26.533Z,1.10
2018-08-10T21:24:53.628Z,1.40
2018-08-10T21:27:20.764Z,1.33
2018-08-10T21:29:47.896Z,1.20
2018-08-10T21:32:15.002Z,1.30
2018-08-10T21:34:42.138Z,1.40
2018-08-10T21:37:09.235Z,2.00
2018-08-10T21:39:36.345Z,2.40
2018-08-10T21:42:03.462Z,2.10
2018-08-10T21:44:30.628Z,1.70
2018-08-10T21:46:57.812Z,1.40
2018-08-10T21:49:24.923Z,1.37
2018-08-10T21:51:52.017Z,1.50
2018-08-10T21:54:19.121Z,1.70
2018-08-10T21:56:46.240Z,1.50
2018-08-10T21:59:13.344Z,1.33
2018-08-10T22:01:41.508Z,1.60
2018-08-10T22:04:08.619Z,1.70
2018-08-10T22:06:35.720Z,1.80
2018-08-10T22:09:03.532Z,1.70
2018-08-10T22:11:31.644Z,1.80
2018-08-10T22:14:04.293Z,1.77
2018-08-10T22:16:36.848Z,1.60
2018-08-10T22:19:09.404Z,1.40
2018-08-10T22:21:36.567Z,1.70
2018-08-10T22:24:03.913Z,1.57
2018-08-10T22:26:31.019Z,1.70
2018-08-10T22:28:58.222Z,1.50
2018-08-10T22:31:25.416Z,1.50
2018-08-10T22:33:52.528Z,1.30
2018-08-10T22:36:19.819Z,1.37
2018-08-10T22:38:46.920Z,1.30
2018-08-10T22:41:14.061Z,1.30
2018-08-10T22:43:41.157Z,1.40
2018-08-10T22:46:08.292Z,1.60
2018-08-10T22:48:35.396Z,1.30
2018-08-10T22:51:02.500Z,1.57
2018-08-10T22:53:29.620Z,1.43
2018-08-10T22:55:56.734Z,1.60
2018-08-10T22:58:23.845Z,1.60
2018-08-10T23:00:50.940Z,1.30
2018-08-10T23:03:18.048Z,1.50
2018-08-10T23:05:45.145Z,1.40
2018-08-10T23:08:12.244Z,1.60
2018-08-10T23:10:39.442Z,1.50
2018-08-10T23:13:06.672Z,1.60
2018-08-10T23:15:33.795Z,1.40
2018-08-10T23:18:00.886Z,1.77
2018-08-10T23:20:28.076Z,1.97
2018-08-10T23:22:55.112Z,1.60
2018-08-10T23:25:22.210Z,1.63
2018-08-10T23:27:49.299Z,1.60
2018-08-10T23:30:16.813Z,1.53
2018-08-10T23:32:44.462Z,1.20
2018-08-10T23:35:11.579Z,1.60
2018-08-10T23:37:38.845Z,1.40
2018-08-10T23:40:07.637Z,1.40
2018-08-10T23:42:34.740Z,1.67
2018-08-10T23:45:01.870Z,1.60
2018-08-10T23:47:28.964Z,1.30
2018-08-10T23:49:56.384Z,1.47
2018-08-10T23:52:23.485Z,1.40
2018-08-10T23:54:50.588Z,1.40
2018-08-10T23:57:17.705Z,1.50
2018-08-10T23:59:44.776Z,1.60
